createdAt,value
2018-06-04T00:02:28.468Z,21.37
2018-06-04T00:04:57.019Z,24.50
2018-06-04T00:07:25.531Z,28.63
2018-06-04T00:09:53.802Z,25.37
2018-06-04T00:12:22.383Z,23.83
2018-06-04T00:14:50.852Z,24.13
2018-06-04T00:17:19.405Z,23.87
2018-06-04T00:19:47.896Z,31.13
2018-06-04T00:22:16.447Z,23.97
2018-06-04T00:24:44.971Z,25.93
2018-06-04T00:27:13.540Z,23.03
2018-06-04T00:29:42.026Z,19.83
2018-06-04T00:32:10.540Z,25.00
2018-06-04T00:34:39.102Z,27.37
2018-06-04T00:37:07.621Z,23.70
2018-06-04T00:39:36.154Z,21.97
2018-06-04T00:42:04.725Z,24.90
2018-06-04T00:44:33.271Z,27.10
2018-06-04T00:47:01.838Z,24.70
2018-06-04T00:49:30.106Z,25.23
2018-06-04T00:51:58.604Z,30.27
2018-06-04T00:54:26.866Z,22.37
2018-06-04T00:56:55.348Z,26.03
2018-06-04T00:59:23.627Z,27.03
2018-06-04T01:01:51.862Z,26.13
2018-06-04T01:04:20.347Z,24.70
2018-06-04T01:06:48.899Z,22.40
2018-06-04T01:09:17.395Z,26.97
2018-06-04T01:11:45.967Z,27.47
2018-06-04T01:14:14.483Z,27.43
2018-06-04T01:16:43.036Z,22.37
2018-06-04T01:19:11.543Z,29.13
2018-06-04T01:21:40.099Z,27.20
2018-06-04T01:24:08.604Z,28.17
2018-06-04T01:26:37.144Z,22.70
2018-06-04T01:29:05.645Z,20.27
2018-06-04T01:31:34.196Z,24.73
2018-06-04T01:34:02.424Z,22.67
2018-06-04T01:36:30.931Z,21.57
2018-06-04T01:38:59.454Z,27.73
2018-06-04T01:41:27.955Z,29.67
2018-06-04T01:43:56.515Z,24.83
2018-06-04T01:46:25.060Z,25.93
2018-06-04T01:48:53.611Z,23.10
2018-06-04T01:51:22.083Z,26.00
2018-06-04T01:53:50.619Z,27.93
2018-06-04T01:56:18.887Z,23.90
2018-06-04T01:58:47.380Z,25.90
2018-06-04T02:01:15.646Z,21.63
2018-06-04T02:03:44.137Z,25.47
2018-06-04T02:06:12.431Z,27.73
2018-06-04T02:08:40.927Z,23.17
2018-06-04T02:11:09.998Z,24.20
2018-06-04T02:13:38.560Z,25.30
2018-06-04T02:16:07.323Z,23.47
2018-06-04T02:18:35.842Z,26.77
2018-06-04T02:21:04.425Z,23.87
2018-06-04T02:23:32.710Z,22.47
2018-06-04T02:26:01.329Z,27.17
2018-06-04T02:28:29.972Z,24.03
2018-06-04T02:30:58.200Z,26.97
2018-06-04T02:33:26.819Z,23.37
2018-06-04T02:35:55.345Z,25.93
2018-06-04T02:38:23.904Z,20.67
2018-06-04T02:40:52.413Z,20.80
2018-06-04T02:43:21.010Z,21.70
2018-06-04T02:45:49.740Z,22.83
2018-06-04T02:48:18.077Z,24.03
2018-06-04T02:50:46.595Z,24.60
2018-06-04T02:53:14.887Z,22.47
2018-06-04T02:55:49.097Z,25.93
2018-06-04T02:58:23.169Z,28.00
2018-06-04T03:00:57.218Z,24.70
2018-06-04T03:03:31.197Z,27.20
2018-06-04T03:06:06.264Z,23.17
2018-06-04T03:08:40.022Z,26.73
2018-06-04T03:11:12.920Z,26.23
2018-06-04T03:13:46.805Z,30.00
2018-06-04T03:16:20.821Z,23.93
2018-06-04T03:18:54.931Z,24.07
2018-06-04T03:21:29.157Z,31.27
2018-06-04T03:24:03.609Z,26.00
2018-06-04T03:26:37.323Z,23.77
2018-06-04T03:29:11.112Z,24.93
2018-06-04T03:31:45.409Z,20.50
2018-06-04T03:34:19.308Z,21.37
2018-06-04T03:36:53.402Z,25.40
2018-06-04T03:39:22.075Z,25.43
2018-06-04T03:41:50.620Z,26.20
2018-06-04T03:44:19.132Z,23.80
2018-06-04T03:46:47.689Z,28.00
2018-06-04T03:49:15.974Z,29.27
2018-06-04T03:51:44.535Z,21.53
2018-06-04T03:54:13.059Z,26.40
2018-06-04T03:56:41.626Z,29.77
2018-06-04T03:59:10.129Z,28.83
2018-06-04T04:01:38.656Z,27.20
2018-06-04T04:04:07.222Z,30.77
2018-06-04T04:06:35.777Z,26.43
2018-06-04T04:09:06.387Z,25.87
2018-06-04T04:11:34.903Z,31.70
2018-06-04T04:14:03.487Z,29.67
2018-06-04T04:16:33.286Z,29.13
2018-06-04T04:19:01.937Z,30.30
2018-06-04T04:21:30.723Z,28.43
2018-06-04T04:23:59.574Z,28.60
2018-06-04T04:26:28.092Z,29.47
2018-06-04T04:28:56.363Z,27.87
2018-06-04T04:31:24.876Z,25.70
2018-06-04T04:33:53.448Z,29.73
2018-06-04T04:36:22.065Z,28.43
2018-06-04T04:38:50.647Z,32.43
2018-06-04T04:41:19.245Z,31.27
2018-06-04T04:43:47.760Z,26.23
2018-06-04T04:46:16.336Z,33.40
2018-06-04T04:48:44.890Z,25.03
2018-06-04T04:51:13.465Z,23.43
2018-06-04T04:53:41.979Z,30.37
2018-06-04T04:56:10.582Z,27.20
2018-06-04T04:58:39.159Z,26.60
2018-06-04T05:01:07.761Z,25.63
2018-06-04T05:03:36.300Z,28.27
2018-06-04T05:06:04.856Z,24.33
2018-06-04T05:08:33.615Z,29.70
2018-06-04T05:11:02.140Z,32.73
2018-06-04T05:13:31.980Z,24.63
2018-06-04T05:16:00.697Z,24.27
2018-06-04T05:18:29.260Z,31.37
2018-06-04T05:20:57.505Z,29.80
2018-06-04T05:23:26.017Z,28.43
2018-06-04T05:25:54.604Z,31.33
2018-06-04T05:28:22.872Z,29.30
2018-06-04T05:30:51.378Z,34.70
2018-06-04T05:33:19.952Z,29.10
2018-06-04T05:35:48.184Z,27.57
2018-06-04T05:38:16.752Z,29.37
2018-06-04T05:40:45.287Z,30.50
2018-06-04T05:43:13.553Z,33.60
2018-06-04T05:45:42.110Z,31.20
2018-06-04T05:48:10.641Z,27.83
2018-06-04T05:50:39.225Z,31.20
2018-06-04T05:53:07.731Z,32.63
2018-06-04T05:55:36.230Z,31.93
2018-06-04T05:58:04.840Z,30.80
2018-06-04T06:00:33.400Z,34.27
2018-06-04T06:03:02.875Z,30.30
2018-06-04T06:05:32.517Z,25.57
2018-06-04T06:08:02.014Z,29.83
2018-06-04T06:10:30.652Z,26.47
2018-06-04T06:12:59.696Z,28.53
2018-06-04T06:15:28.226Z,35.47
2018-06-04T06:17:56.855Z,24.20
2018-06-04T06:20:25.359Z,27.97
2018-06-04T06:22:53.867Z,25.07
2018-06-04T06:25:22.210Z,27.80
2018-06-04T06:27:50.670Z,26.10
2018-06-04T06:30:19.208Z,24.00
2018-06-04T06:32:47.489Z,25.63
2018-06-04T06:35:15.711Z,25.07
2018-06-04T06:37:44.264Z,23.30
2018-06-04T06:40:12.809Z,29.70
2018-06-04T06:42:41.409Z,23.20
2018-06-04T06:45:10.056Z,22.67
2018-06-04T06:47:38.654Z,19.57
2018-06-04T06:50:07.239Z,24.43
2018-06-04T06:52:35.793Z,20.90
2018-06-04T06:55:04.309Z,19.03
2018-06-04T06:57:32.958Z,20.37
2018-06-04T07:00:02.564Z,21.47
2018-06-04T07:02:32.273Z,19.50
2018-06-04T07:05:01.825Z,19.23
2018-06-04T07:07:30.115Z,18.43
2018-06-04T07:09:58.694Z,16.43
2018-06-04T07:12:27.220Z,18.40
2018-06-04T07:14:56.489Z,14.40
2018-06-04T07:17:26.250Z,13.87
2018-06-04T07:19:55.459Z,16.47
2018-06-04T07:22:24.013Z,18.63
2018-06-04T07:24:52.665Z,14.30
2018-06-04T07:27:21.413Z,12.47
2018-06-04T07:29:50.031Z,15.73
2018-06-04T07:32:18.781Z,15.80
2018-06-04T07:34:47.560Z,14.90
2018-06-04T07:37:16.246Z,18.27
2018-06-04T07:39:44.909Z,17.33
2018-06-04T07:42:13.612Z,18.07
2018-06-04T07:44:42.288Z,19.83
2018-06-04T07:47:11.010Z,19.13
2018-06-04T07:49:39.363Z,14.53
2018-06-04T07:52:08.043Z,13.60
2018-06-04T07:54:36.670Z,13.57
2018-06-04T07:57:05.509Z,18.63
2018-06-04T07:59:34.113Z,18.03
2018-06-04T08:02:02.839Z,16.73
2018-06-04T08:04:32.125Z,15.47
2018-06-04T08:07:00.891Z,13.30
2018-06-04T08:09:30.187Z,14.57
2018-06-04T08:11:58.850Z,14.63
2018-06-04T08:14:27.851Z,13.37
2018-06-04T08:16:56.662Z,15.00
2018-06-04T08:19:25.323Z,17.07
2018-06-04T08:21:54.013Z,17.73
2018-06-04T08:24:22.841Z,13.57
2018-06-04T08:26:51.220Z,13.73
2018-06-04T08:29:19.958Z,13.83
2018-06-04T08:31:48.589Z,17.40
2018-06-04T08:34:16.943Z,15.43
2018-06-04T08:36:45.563Z,18.70
2018-06-04T08:39:14.336Z,17.10
2018-06-04T08:41:42.652Z,21.70
2018-06-04T08:44:11.361Z,15.67
2018-06-04T08:46:40.114Z,14.30
2018-06-04T08:49:08.867Z,16.27
2018-06-04T08:51:37.519Z,15.85
2018-06-04T08:54:06.148Z,15.90
2018-06-04T08:56:34.964Z,15.83
2018-06-04T08:59:03.693Z,16.87
2018-06-04T09:01:32.769Z,16.55
2018-06-04T09:04:02.088Z,17.87
2018-06-04T09:06:31.751Z,16.05
2018-06-04T09:09:00.603Z,15.53
2018-06-04T09:11:29.833Z,11.80
2018-06-04T09:13:58.408Z,15.93
2018-06-04T09:16:27.196Z,14.60
2018-06-04T09:18:55.995Z,15.53
2018-06-04T13:06:45.779Z,13.40
2018-06-04T13:09:14.732Z,9.53
2018-06-04T13:11:43.518Z,9.20
2018-06-04T13:14:12.277Z,9.93
2018-06-04T13:16:41.063Z,9.30
2018-06-04T13:19:09.918Z,11.23
2018-06-04T13:21:38.797Z,7.83
2018-06-04T13:24:07.494Z,8.58
2018-06-04T13:26:36.090Z,10.00
2018-06-04T13:29:04.680Z,7.90
2018-06-04T13:31:33.307Z,7.97
2018-06-04T13:34:02.125Z,7.65
2018-06-04T13:36:31.445Z,9.48
2018-06-04T13:39:00.822Z,9.55
2018-06-04T13:41:30.156Z,8.05
2018-06-04T13:43:59.771Z,8.03
2018-06-04T13:46:28.535Z,9.65
2018-06-04T13:48:57.257Z,7.72
2018-06-04T13:51:26.023Z,7.25
2018-06-04T13:53:54.845Z,8.93
2018-06-04T13:56:23.227Z,7.53
2018-06-04T13:58:51.967Z,8.70
2018-06-04T14:01:20.502Z,11.73
2018-06-04T14:03:49.163Z,8.78
2018-06-04T14:06:17.867Z,9.35
2018-06-04T14:08:46.167Z,9.53
2018-06-04T14:11:14.829Z,9.08
2018-06-04T14:13:43.559Z,9.40
2018-06-04T14:16:12.197Z,9.80
2018-06-04T14:18:40.542Z,7.75
2018-06-04T14:21:09.152Z,9.23
2018-06-04T14:23:37.765Z,6.90
2018-06-04T14:26:06.507Z,13.38
2018-06-04T14:28:35.339Z,7.97
2018-06-04T14:31:04.026Z,7.37
2018-06-04T14:33:32.863Z,7.83
2018-06-04T14:36:02.309Z,8.60
2018-06-04T14:38:31.320Z,9.95
2018-06-04T14:41:00.887Z,8.90
2018-06-04T14:43:30.368Z,8.55
2018-06-04T14:45:59.703Z,9.95
2018-06-04T14:48:28.357Z,9.18
2018-06-04T14:50:57.100Z,8.53
2018-06-04T14:53:25.760Z,7.37
2018-06-04T14:55:54.100Z,8.83
2018-06-04T14:58:22.684Z,9.48
2018-06-04T15:00:51.251Z,8.38
2018-06-04T15:03:19.815Z,8.28
2018-06-04T15:05:48.428Z,11.50
2018-06-04T15:08:17.003Z,9.03
2018-06-04T15:10:45.663Z,12.30
2018-06-04T15:13:14.295Z,8.23
2018-06-04T15:15:42.835Z,8.88
2018-06-04T15:18:11.555Z,8.85
2018-06-04T15:20:40.278Z,10.60
2018-06-04T15:23:08.972Z,8.68
2018-06-04T15:25:37.556Z,8.30
2018-06-04T15:28:06.332Z,8.48
2018-06-04T15:30:35.018Z,9.03
2018-06-04T15:33:03.670Z,9.50
2018-06-04T15:35:32.977Z,9.55
2018-06-04T15:38:02.233Z,7.70
2018-06-04T15:40:31.565Z,7.83
2018-06-04T15:43:00.904Z,8.08
2018-06-04T15:45:30.103Z,7.85
2018-06-04T15:47:58.571Z,8.65
2018-06-04T15:50:28.315Z,7.83
2018-06-04T15:52:57.012Z,8.75
2018-06-04T15:55:25.732Z,8.70
2018-06-04T15:57:54.366Z,9.28
2018-06-04T16:00:23.083Z,7.80
2018-06-04T16:02:51.871Z,8.35
2018-06-04T16:05:20.510Z,7.87
2018-06-04T16:07:48.824Z,9.28
2018-06-04T16:10:17.431Z,8.43
2018-06-04T16:12:46.342Z,10.13
2018-06-04T16:15:15.113Z,7.33
2018-06-04T16:17:43.703Z,10.35
2018-06-04T16:20:12.428Z,10.03
2018-06-04T16:22:40.837Z,11.10
2018-06-04T16:25:09.776Z,13.72
2018-06-04T16:27:38.510Z,25.92
2018-06-04T16:30:07.263Z,12.43
2018-06-04T16:32:36.103Z,9.00
2018-06-04T16:35:04.830Z,9.08
2018-06-04T16:37:33.321Z,8.80
2018-06-04T16:40:02.533Z,10.03
2018-06-04T16:42:31.940Z,9.35
2018-06-04T16:45:00.679Z,9.43
2018-06-04T16:47:30.173Z,9.48
2018-06-04T16:49:58.865Z,8.78
2018-06-04T16:52:27.400Z,8.60
2018-06-04T16:54:56.197Z,9.93
2018-06-04T16:57:24.810Z,11.77
2018-06-04T16:59:53.454Z,8.50
2018-06-04T17:02:22.088Z,8.35
2018-06-04T17:04:50.472Z,8.77
2018-06-04T17:07:19.046Z,9.20
2018-06-04T17:09:47.742Z,8.40
2018-06-04T17:12:16.402Z,8.80
2018-06-04T17:14:45.027Z,11.73
2018-06-04T17:17:13.689Z,9.77
2018-06-04T17:19:42.392Z,9.40
2018-06-04T17:22:10.994Z,8.30
2018-06-04T17:24:39.854Z,7.93
2018-06-04T17:27:08.665Z,7.53
2018-06-04T17:29:37.278Z,8.07
2018-06-04T17:32:06.250Z,8.57
2018-06-04T17:34:34.743Z,7.87
2018-06-04T17:37:03.300Z,9.85
2018-06-04T17:39:33.293Z,8.90
2018-06-04T17:42:03.105Z,8.33
2018-06-04T17:44:32.608Z,7.87
2018-06-04T17:47:02.434Z,8.27
2018-06-04T17:49:32.175Z,7.00
2018-06-04T17:52:00.784Z,6.90
2018-06-04T17:54:29.810Z,7.40
2018-06-04T17:56:58.423Z,6.90
2018-06-04T17:59:27.019Z,6.03
2018-06-04T18:01:55.295Z,6.30
2018-06-04T18:04:23.506Z,6.83
2018-06-04T18:06:52.079Z,6.70
2018-06-04T18:09:20.586Z,10.57
2018-06-04T18:11:50.084Z,5.73
2018-06-04T18:14:18.570Z,6.07
2018-06-04T18:16:47.198Z,8.83
2018-06-04T18:19:15.717Z,6.07
2018-06-04T18:21:44.278Z,6.30
2018-06-04T18:24:12.508Z,8.27
2018-06-04T18:26:41.078Z,7.43
2018-06-04T18:29:09.588Z,5.23
2018-06-04T18:31:38.182Z,7.10
2018-06-04T18:34:06.452Z,5.73
2018-06-04T18:36:34.997Z,8.77
2018-06-04T18:39:03.909Z,5.73
2018-06-04T18:41:32.403Z,5.40
2018-06-04T18:44:02.384Z,6.20
2018-06-04T18:46:31.587Z,5.27
2018-06-04T18:49:00.824Z,6.07
2018-06-04T18:51:29.851Z,6.00
2018-06-04T18:53:58.469Z,6.43
2018-06-04T18:56:26.990Z,5.60
2018-06-04T18:58:55.509Z,5.80
2018-06-04T19:01:24.008Z,6.53
2018-06-04T19:03:55.714Z,5.40
2018-06-04T19:06:24.256Z,5.40
2018-06-04T19:08:52.804Z,6.03
2018-06-04T19:11:21.315Z,7.10
2018-06-04T19:13:49.887Z,8.13
2018-06-04T19:16:18.447Z,7.43
2018-06-04T19:18:47.020Z,7.37
2018-06-04T19:21:15.552Z,9.43
2018-06-04T19:23:44.095Z,8.30
2018-06-04T19:26:12.679Z,7.00
2018-06-04T19:28:41.247Z,7.77
2018-06-04T19:31:09.975Z,8.33
2018-06-04T19:33:38.468Z,8.13
2018-06-04T19:36:06.997Z,10.53
2018-06-04T19:38:35.566Z,7.73
2018-06-04T19:41:03.923Z,13.07
2018-06-04T19:43:32.481Z,10.10
2018-06-04T19:46:02.000Z,9.90
2018-06-04T19:48:31.725Z,10.37
2018-06-04T19:51:00.490Z,12.07
2018-06-04T19:53:30.201Z,10.73
2018-06-04T19:55:58.784Z,11.67
2018-06-04T19:58:27.285Z,11.23
2018-06-04T20:00:55.961Z,14.60
2018-06-04T20:03:24.489Z,12.27
2018-06-04T20:05:53.143Z,13.83
2018-06-04T20:08:21.643Z,14.83
2018-06-04T20:10:49.862Z,15.50
2018-06-04T20:13:18.421Z,17.67
2018-06-04T20:15:47.143Z,14.90
2018-06-04T20:18:15.742Z,16.13
2018-06-04T20:20:44.320Z,14.43
2018-06-04T20:23:12.890Z,17.47
2018-06-04T20:25:41.790Z,17.37
2018-06-04T20:28:10.366Z,17.90
2018-06-04T20:30:38.903Z,15.83
2018-06-04T20:33:07.127Z,19.90
2018-06-04T20:35:35.676Z,13.93
2018-06-04T20:38:04.237Z,18.10
2018-06-04T20:40:32.599Z,16.47
2018-06-04T20:43:01.752Z,15.63
2018-06-04T20:45:30.833Z,16.70
2018-06-04T20:47:59.852Z,18.37
2018-06-04T20:50:28.474Z,14.70
2018-06-04T20:52:56.714Z,17.73
2018-06-04T20:55:25.222Z,17.53
2018-06-04T20:57:53.526Z,18.40
2018-06-04T21:00:22.033Z,17.77
2018-06-04T21:02:50.530Z,21.10
2018-06-04T21:05:19.103Z,17.87
2018-06-04T21:07:47.612Z,16.10
2018-06-04T21:10:16.166Z,18.77
2018-06-04T21:12:44.688Z,16.93
2018-06-04T21:15:13.242Z,18.47
2018-06-04T21:17:41.764Z,18.33
2018-06-04T21:20:10.053Z,22.60
2018-06-04T21:22:38.273Z,19.77
2018-06-04T21:25:06.848Z,17.07
2018-06-04T21:27:35.401Z,20.90
2018-06-04T21:30:03.977Z,19.03
2018-06-04T21:32:32.536Z,21.27
2018-06-04T21:35:03.418Z,18.07
2018-06-04T21:37:33.079Z,21.03
2018-06-04T21:40:02.395Z,19.77
2018-06-04T21:42:30.743Z,19.33
2018-06-04T21:44:59.832Z,20.23
2018-06-04T21:47:28.336Z,18.60
2018-06-04T21:49:56.974Z,20.67
2018-06-04T21:52:25.465Z,20.67
2018-06-04T21:54:54.050Z,20.80
2018-06-04T21:57:22.575Z,19.67
2018-06-04T21:59:50.813Z,25.23
2018-06-04T22:02:19.364Z,23.37
2018-06-04T22:04:47.971Z,17.53
2018-06-04T22:07:16.485Z,26.20
2018-06-04T22:09:45.006Z,18.70
2018-06-04T22:12:13.550Z,20.93
2018-06-04T22:14:42.060Z,20.27
2018-06-04T22:17:10.655Z,18.87
2018-06-04T22:19:39.169Z,23.07
2018-06-04T22:22:07.750Z,22.20
2018-06-04T22:24:36.275Z,21.93
2018-06-04T22:27:04.566Z,21.27
2018-06-04T22:29:33.084Z,21.93
2018-06-04T22:32:02.419Z,18.87
2018-06-04T22:34:32.152Z,24.27
2018-06-04T22:37:02.003Z,20.10
2018-06-04T22:39:30.533Z,19.60
2018-06-04T22:41:59.024Z,20.77
2018-06-04T22:44:27.297Z,19.40
2018-06-04T22:46:55.534Z,22.60
2018-06-04T22:49:24.079Z,20.77
2018-06-04T22:51:52.686Z,24.33
2018-06-04T22:54:21.212Z,22.63
2018-06-04T22:56:49.778Z,25.90
2018-06-04T22:59:18.263Z,22.30
2018-06-04T23:01:46.859Z,28.83
2018-06-04T23:04:15.361Z,22.67
2018-06-04T23:06:43.927Z,23.93
2018-06-04T23:09:12.595Z,20.90
2018-06-04T23:11:41.163Z,24.60
2018-06-04T23:14:09.681Z,24.23
2018-06-04T23:16:37.971Z,23.73
2018-06-04T23:19:06.516Z,25.60
2018-06-04T23:21:35.033Z,24.23
2018-06-04T23:24:04.332Z,20.00
2018-06-04T23:26:32.821Z,23.87
2018-06-04T23:29:02.370Z,26.23
2018-06-04T23:31:31.603Z,27.90
2018-06-04T23:33:59.893Z,22.57
2018-06-04T23:36:28.458Z,27.73
2018-06-04T23:38:56.746Z,30.37
2018-06-04T23:41:24.982Z,27.93
2018-06-04T23:43:53.497Z,28.93
2018-06-04T23:46:21.765Z,28.83
2018-06-04T23:48:50.274Z,27.20
2018-06-04T23:51:18.871Z,22.67
2018-06-04T23:53:47.369Z,27.33
2018-06-04T23:56:15.926Z,25.70
2018-06-04T23:58:44.433Z,26.60
